РУС

ENG

 
  Pireps - S7
 

Рейс SBI6225

  • Выполнял: Kirill Spirin
  • Аэропорт отправления: Vladivostok Knevichi (UHWW)
  • Аэропорт назначения: Habarovsk-Noviy (UHHH)
  • Тип ВС: A320-214 (VQ-BRC)
  • Время полёта: 01.15
  • Дата полёта: 07.06.2021
  • Маршрут: DOLMA B356 TD B355 ARDEL
  • Статус: Ожидает рассмотрения

Детали полёта
Gross Revenue:
(125 load / $ 70.00 per unit
$ 8, 750.00
Fuel Cost:
(2977 fuel used @ 5.1 / unit)
$ 15, 182.70


Дополнительная информация о полёте:

Лог

Aircraft Used in flight is Airbus A320 Airbus Industries F-WWBA
17:36 Boarding
17:36 Navigation Lights ON at 60 AGL
17:36 Beacon Lights ON at 60 AGL
17:36 Brakes are On
17:37 Brakes are Released
17:38 Pushing back
17:38 Engine 2 Started
17:39 Engine 1 Started
17:39Flaps 2 Selected at 60ft and 2kts
17:40 Brakes are On
17:40 Spoilers Armed
17:42 Taxi Lights ON at 60 AGL
17:42 Brakes are Released
17:45 Landing Lights ON at 60 AGL
17:45 Strobe Lights ON at 60 AGL
17:46 You Took off @ 144 Knots and Flaps at Position 2
Departure Weather
UHWW 071030Z 00000MPS 9999 FEW033 18/12 Q1012 R25L/0///70 NOSIG RMK QFE758
17:46 Landing Gear Up @ 159 Knots and 100 Feet
17:46 Taxi Lights OFF at 100 AGL
17:47Flaps 1 Selected at 2820ft and 195kts
17:47Flaps Retracted at 2830ft and 195kts
17:48 Landing Lights OFF at 4310 AGL
17:48 Spoilers Disarmed
17:48 You exceeded maximum bank angle
18:01 TOC Reached
18:40 Spoilers Armed
18:43Flaps 1 Selected at 3950ft and 199kts
18:43 Landing Lights ON at 3920 AGL
18:45Flaps 3 Selected at 2290ft and 185kts
18:46 Landing Gear Down @ 158 Knots and 2170 Feet
18:46Flaps 4 Selected at 1980ft and 144kts
18:46 Paused
18:47 Unpaused
18:47 Taxi Lights ON at 1740 AGL
18:49 You Landed @ 136 Knots and with -300 Vertical Speed
Arrival Weather
UHHH 071000Z 26005MPS CAVOK 22/09 Q1006 R23R/090060 NOSIG RMK QFE749/0998
18:50 Landing Lights OFF at 260 AGL
18:50 Strobe Lights OFF at 260 AGL
18:50 Spoilers Disarmed
18:50Flaps 2 Selected at 260ft and 42kts
18:50Flaps 1 Selected at 260ft and 42kts
18:50Flaps Retracted at 260ft and 42kts
18:52 Taxi Lights OFF at 260 AGL
18:52 Brakes are On
18:52 Engine 2 Stoped
18:52 Engine 1 Stoped
Pirep logged with S7 Tracking 1.0.0.14



Общая оценка полета : 100%




Route Map



 
 
   
 
Новости

03.09.2020 - Полеты в MFS 2020

Спешим сообщить вам, что теперь наш S7 Pad поддерживается для полетов в новом симуляторе MFS 2020. В разделе Загрузки вы найдете FSUIPC7.rar
Инструкция для запуска прилагается!

   
 
Авторизация






Регистрация

Восстановить пароль?

Мы в соц. сетях

      



   
 





   
 


   
 


Яндекс.Метрика

www.va-s7.ru 2011-2021
Все права защищены.



Минуточку внимания!
Сайт va-s7.ru не является коммерческим проектом. Мы не имеем отношения к торговым маркам "S7" и "Globus" и их представителям.
Эмблемы на сайте являются собственностью соответствующих компаний.

аэронавигационная метеорологическая и любая другая информация с данного ресурса ни в коем случае не должна использоваться для реальных полетов